Time;durP1;ratioP1;P1;durP2;ratioP2;P2;SDS_P1;SDS_P2;PMS_P1;PMS_P2;Temp;Humidity;BMP_temperature;BMP_pressure;BME280_temperature;BME280_humidity;BME280_pressure;Samples;Min_cycle;Max_cycle;Signal;HPM_P1;HPM_P2
2022/09/12 00:01:30;;;;;;;14.03;12.57;;;;;;;;;;5057697;28;20313;-77
2022/09/12 00:04:00;;;;;;;15.17;13.00;;;;;;;;;;5057044;28;20294;-76
2022/09/12 00:06:30;;;;;;;15.90;13.40;;;;;;;;;;5056765;28;20230;-77
2022/09/12 00:08:59;;;;;;;15.00;13.03;;;;;;;;;;5038038;28;20665;-76
2022/09/12 00:11:28;;;;;;;13.90;12.43;;;;;;;;;;5051846;28;20319;-77
2022/09/12 00:13:57;;;;;;;14.30;12.40;;;;;;;;;;5036835;28;20238;-76
2022/09/12 00:16:26;;;;;;;13.67;12.30;;;;;;;;;;5056522;28;20301;-77
2022/09/12 00:18:56;;;;;;;14.03;11.97;;;;;;;;;;5056475;28;20349;-76
2022/09/12 00:21:24;;;;;;;13.63;12.20;;;;;;;;;;5047620;28;20257;-76
2022/09/12 00:23:53;;;;;;;13.33;11.83;;;;;;;;;;5053956;28;20297;-77
2022/09/12 00:26:21;;;;;;;14.60;11.90;;;;;;;;;;5036366;28;20242;-77
2022/09/12 00:28:50;;;;;;;15.23;12.17;;;;;;;;;;5036423;28;20715;-76
2022/09/12 00:31:19;;;;;;;16.97;13.50;;;;;;;;;;5038641;28;20306;-76
2022/09/12 00:33:48;;;;;;;16.83;13.33;;;;;;;;;;5053378;28;20283;-76
2022/09/12 00:36:18;;;;;;;14.60;13.10;;;;;;;;;;5056165;28;20365;-77
2022/09/12 00:38:47;;;;;;;14.97;13.37;;;;;;;;;;5038495;28;20299;-77
2022/09/12 00:41:17;;;;;;;14.80;13.30;;;;;;;;;;5053325;28;20791;-77
2022/09/12 00:43:47;;;;;;;19.83;14.13;;;;;;;;;;5056332;28;20270;-76
2022/09/12 00:46:18;;;;;;;17.07;14.13;;;;;;;;;;5056124;28;20249;-77
2022/09/12 00:48:52;;;;;;;16.63;14.13;;;;;;;;;;5056009;28;20246;-77
2022/09/12 00:51:23;;;;;;;18.83;14.67;;;;;;;;;;5056219;28;20268;-77
2022/09/12 00:53:53;;;;;;;15.53;13.67;;;;;;;;;;5056082;28;20191;-77
2022/09/12 00:56:22;;;;;;;17.93;13.57;;;;;;;;;;5055629;28;20290;-77
2022/09/12 00:58:53;;;;;;;15.43;12.87;;;;;;;;;;5049499;28;20203;-76
2022/09/12 01:01:21;;;;;;;20.70;13.80;;;;;;;;;;5055731;28;20266;-76
2022/09/12 01:03:50;;;;;;;16.83;14.00;;;;;;;;;;5055353;28;20210;-77
2022/09/12 01:06:21;;;;;;;18.40;14.33;;;;;;;;;;5055396;28;20289;-76
2022/09/12 01:08:51;;;;;;;17.23;14.70;;;;;;;;;;5055277;28;20266;-77
2022/09/12 01:11:21;;;;;;;15.40;12.97;;;;;;;;;;5054993;28;20273;-77
2022/09/12 01:13:50;;;;;;;15.83;13.17;;;;;;;;;;5055513;28;20278;-77
2022/09/12 01:16:18;;;;;;;16.10;13.23;;;;;;;;;;5055439;28;20317;-77
2022/09/12 01:18:52;;;;;;;18.07;13.63;;;;;;;;;;5055452;28;20241;-76
2022/09/12 01:21:25;;;;;;;17.73;13.60;;;;;;;;;;5055321;28;20280;-77
2022/09/12 01:24:13;;;;;;;16.50;13.67;;;;;;;;;;5055114;28;20259;-77
2022/09/12 01:26:56;;;;;;;15.90;13.23;;;;;;;;;;5054668;28;20672;-77
2022/09/12 01:29:36;;;;;;;13.63;11.73;;;;;;;;;;5033023;28;20218;-77
2022/09/12 01:32:09;;;;;;;13.57;11.63;;;;;;;;;;5054891;28;20315;-76
2022/09/12 01:34:42;;;;;;;16.60;13.07;;;;;;;;;;5054765;28;20192;-76
2022/09/12 01:37:15;;;;;;;16.13;11.93;;;;;;;;;;5054871;28;20299;-77
2022/09/12 01:39:51;;;;;;;17.73;12.23;;;;;;;;;;5055146;28;20179;-77
2022/09/12 01:42:23;;;;;;;15.10;11.77;;;;;;;;;;5054698;28;20273;-76
2022/09/12 01:44:55;;;;;;;14.80;11.33;;;;;;;;;;5054772;28;20634;-75
2022/09/12 01:47:30;;;;;;;14.53;11.63;;;;;;;;;;5054916;28;20187;-77
2022/09/12 01:50:01;;;;;;;14.20;12.37;;;;;;;;;;5054437;28;20289;-76
2022/09/12 01:52:32;;;;;;;14.80;12.50;;;;;;;;;;5054196;28;20261;-75
2022/09/12 01:55:03;;;;;;;15.03;13.27;;;;;;;;;;5054550;28;20272;-76
2022/09/12 01:57:40;;;;;;;15.97;12.67;;;;;;;;;;5054037;28;20213;-76
2022/09/12 02:00:10;;;;;;;13.93;12.30;;;;;;;;;;5054438;28;20245;-77
2022/09/12 02:02:41;;;;;;;15.60;12.77;;;;;;;;;;5054082;28;20330;-76
2022/09/12 02:05:11;;;;;;;14.20;11.80;;;;;;;;;;5053423;28;20298;-75
2022/09/12 02:07:41;;;;;;;14.50;11.20;;;;;;;;;;5053898;28;20250;-77
2022/09/12 02:10:12;;;;;;;13.40;11.50;;;;;;;;;;5053850;28;20298;-76
2022/09/12 02:12:43;;;;;;;13.60;11.87;;;;;;;;;;5053584;28;20253;-77
2022/09/12 02:15:13;;;;;;;15.57;11.60;;;;;;;;;;5054668;28;20278;-77
2022/09/12 02:17:44;;;;;;;16.10;12.67;;;;;;;;;;5053796;28;20584;-77
2022/09/12 02:20:17;;;;;;;17.47;13.23;;;;;;;;;;5053583;28;20294;-77
2022/09/12 02:23:08;;;;;;;14.77;12.43;;;;;;;;;;5054051;28;20302;-76
2022/09/12 02:25:38;;;;;;;15.63;12.27;;;;;;;;;;5053781;28;20285;-76
2022/09/12 02:28:09;;;;;;;18.30;11.77;;;;;;;;;;5042153;28;20632;-77
2022/09/12 02:30:40;;;;;;;13.80;11.20;;;;;;;;;;5033958;28;20665;-77
2022/09/12 02:33:15;;;;;;;14.17;11.43;;;;;;;;;;5049394;28;20199;-77
2022/09/12 02:35:46;;;;;;;21.17;12.43;;;;;;;;;;5053167;28;20251;-76
2022/09/12 02:38:18;;;;;;;15.63;11.47;;;;;;;;;;5053790;28;20319;-75
2022/09/12 02:40:47;;;;;;;14.43;11.50;;;;;;;;;;5053775;28;20345;-77
2022/09/12 02:43:15;;;;;;;19.70;12.83;;;;;;;;;;5053512;28;20207;-76
2022/09/12 02:45:44;;;;;;;15.00;12.37;;;;;;;;;;5053489;28;20733;-77
2022/09/12 02:48:15;;;;;;;18.73;13.70;;;;;;;;;;5053463;28;20203;-75
2022/09/12 02:50:44;;;;;;;14.33;12.63;;;;;;;;;;5053123;28;20222;-75
2022/09/12 02:53:13;;;;;;;15.77;13.53;;;;;;;;;;5053270;28;20294;-76
2022/09/12 02:55:41;;;;;;;16.63;13.53;;;;;;;;;;5053119;28;20245;-77
2022/09/12 02:58:11;;;;;;;18.23;13.47;;;;;;;;;;5052764;28;20302;-76
2022/09/12 03:00:45;;;;;;;18.40;13.67;;;;;;;;;;5053354;28;20282;-76
2022/09/12 03:03:23;;;;;;;16.37;12.20;;;;;;;;;;5053467;28;20218;-75
2022/09/12 03:05:56;;;;;;;18.80;13.90;;;;;;;;;;5053525;28;20278;-76
2022/09/12 03:08:43;;;;;;;15.70;13.00;;;;;;;;;;5053444;28;20612;-76
2022/09/12 03:11:20;;;;;;;17.07;13.17;;;;;;;;;;5053064;28;20230;-75
2022/09/12 03:13:53;;;;;;;13.47;11.93;;;;;;;;;;5053303;28;20227;-77
2022/09/12 03:16:27;;;;;;;17.20;12.83;;;;;;;;;;5053300;28;20290;-76
2022/09/12 03:19:02;;;;;;;13.63;12.03;;;;;;;;;;5053138;28;20207;-76
2022/09/12 03:21:33;;;;;;;14.93;11.50;;;;;;;;;;5053169;28;20644;-73
2022/09/12 03:24:06;;;;;;;15.20;11.00;;;;;;;;;;5053135;28;20275;-77
2022/09/12 03:26:37;;;;;;;13.90;11.37;;;;;;;;;;5053293;28;20228;-76
2022/09/12 03:29:06;;;;;;;12.07;10.50;;;;;;;;;;5053073;28;20285;-76
2022/09/12 03:31:35;;;;;;;14.33;11.17;;;;;;;;;;5052864;28;20777;-77
2022/09/12 03:34:05;;;;;;;13.17;10.73;;;;;;;;;;5053048;28;20195;-75
2022/09/12 03:36:33;;;;;;;18.67;12.43;;;;;;;;;;5053087;28;20696;-76
2022/09/12 03:39:01;;;;;;;17.60;13.20;;;;;;;;;;5052696;28;20680;-77
2022/09/12 03:41:30;;;;;;;17.10;13.80;;;;;;;;;;5052997;28;20656;-77
2022/09/12 03:43:58;;;;;;;21.23;13.83;;;;;;;;;;5052614;28;20203;-77
2022/09/12 03:46:27;;;;;;;17.60;14.80;;;;;;;;;;5053104;28;20261;-77
2022/09/12 03:48:55;;;;;;;18.77;15.57;;;;;;;;;;5054652;28;20661;-76
2022/09/12 03:51:25;;;;;;;16.93;14.30;;;;;;;;;;5056914;28;20759;-76
2022/09/12 03:53:53;;;;;;;17.60;14.67;;;;;;;;;;5056891;28;20206;-76
2022/09/12 03:56:22;;;;;;;21.53;15.17;;;;;;;;;;5056821;28;20290;-76
2022/09/12 03:58:50;;;;;;;17.37;14.53;;;;;;;;;;5051512;28;20310;-76
2022/09/12 04:01:20;;;;;;;19.60;14.70;;;;;;;;;;5044907;28;20707;-75
2022/09/12 04:03:49;;;;;;;17.27;14.00;;;;;;;;;;5056118;28;20203;-75
2022/09/12 04:06:18;;;;;;;16.90;13.50;;;;;;;;;;5056436;28;20647;-76
2022/09/12 04:08:50;;;;;;;16.07;13.83;;;;;;;;;;5052752;28;20295;-76
2022/09/12 04:11:19;;;;;;;17.93;13.13;;;;;;;;;;5035629;28;20310;-76
2022/09/12 04:13:48;;;;;;;17.47;12.60;;;;;;;;;;5036349;28;20292;-76
2022/09/12 04:16:17;;;;;;;15.43;12.20;;;;;;;;;;5036063;28;20661;-76
2022/09/12 04:18:46;;;;;;;16.07;12.47;;;;;;;;;;5042400;28;20227;-76
2022/09/12 04:21:15;;;;;;;15.63;13.73;;;;;;;;;;5055817;28;20222;-76
2022/09/12 04:23:44;;;;;;;16.90;12.37;;;;;;;;;;5056088;28;20238;-76
2022/09/12 04:26:14;;;;;;;17.77;13.30;;;;;;;;;;5056182;28;20286;-76
2022/09/12 04:28:42;;;;;;;15.47;12.43;;;;;;;;;;5055940;28;20624;-76
2022/09/12 04:31:14;;;;;;;18.53;13.20;;;;;;;;;;5055905;28;20242;-76
2022/09/12 04:33:42;;;;;;;15.27;12.43;;;;;;;;;;5055715;28;20269;-76
2022/09/12 04:36:15;;;;;;;15.00;11.60;;;;;;;;;;5055796;28;20707;-76
2022/09/12 04:38:44;;;;;;;15.00;11.20;;;;;;;;;;5055370;28;20250;-76
2022/09/12 04:41:14;;;;;;;16.00;12.23;;;;;;;;;;5047987;28;20219;-75
2022/09/12 04:43:45;;;;;;;14.37;11.73;;;;;;;;;;5055884;28;20607;-76
2022/09/12 04:46:14;;;;;;;15.43;11.60;;;;;;;;;;5055399;28;20191;-76
2022/09/12 04:48:43;;;;;;;14.13;12.10;;;;;;;;;;5055473;28;20278;-76
2022/09/12 04:51:13;;;;;;;12.83;11.47;;;;;;;;;;5055233;28;20231;-76
2022/09/12 04:53:42;;;;;;;17.97;12.17;;;;;;;;;;5055385;28;20230;-76
2022/09/12 04:56:12;;;;;;;15.20;11.13;;;;;;;;;;5055615;28;20294;-78
2022/09/12 04:58:42;;;;;;;16.57;11.27;;;;;;;;;;5055037;28;20223;-76
2022/09/12 05:01:11;;;;;;;15.50;12.10;;;;;;;;;;5054289;28;20257;-75
2022/09/12 05:03:42;;;;;;;15.63;11.10;;;;;;;;;;5055217;28;20195;-76
2022/09/12 05:06:11;;;;;;;14.03;11.20;;;;;;;;;;5055312;28;20285;-75
2022/09/12 05:08:39;;;;;;;11.70;10.43;;;;;;;;;;5054727;28;20238;-76
2022/09/12 05:11:10;;;;;;;14.13;10.93;;;;;;;;;;5054690;28;20265;-76
2022/09/12 05:13:39;;;;;;;14.53;11.47;;;;;;;;;;5055073;28;20234;-76
2022/09/12 05:16:10;;;;;;;13.17;11.50;;;;;;;;;;5055095;28;20260;-75
2022/09/12 05:18:39;;;;;;;16.87;11.67;;;;;;;;;;5054787;28;20207;-76
2022/09/12 05:21:09;;;;;;;13.73;11.47;;;;;;;;;;5054688;28;20306;-75
2022/09/12 05:23:37;;;;;;;15.70;11.47;;;;;;;;;;5054735;28;20211;-76
2022/09/12 05:26:07;;;;;;;15.13;11.13;;;;;;;;;;5054769;28;20202;-76
2022/09/12 05:28:37;;;;;;;13.57;11.30;;;;;;;;;;5054602;28;20289;-76
2022/09/12 05:31:06;;;;;;;14.10;10.50;;;;;;;;;;5035703;28;20255;-76
2022/09/12 05:33:36;;;;;;;14.03;10.37;;;;;;;;;;5035120;28;20250;-77
2022/09/12 05:36:06;;;;;;;13.93;11.17;;;;;;;;;;5043575;28;20274;-76
2022/09/12 05:38:36;;;;;;;17.47;12.30;;;;;;;;;;5054987;28;20644;-76
2022/09/12 05:41:05;;;;;;;15.33;12.57;;;;;;;;;;5054384;28;20310;-76
2022/09/12 05:43:33;;;;;;;16.20;12.43;;;;;;;;;;5054538;28;20249;-75
2022/09/12 05:46:02;;;;;;;14.40;11.97;;;;;;;;;;5054510;28;20203;-76
2022/09/12 05:48:33;;;;;;;14.30;12.80;;;;;;;;;;5054586;28;20235;-76
2022/09/12 05:51:05;;;;;;;15.83;12.47;;;;;;;;;;5054515;28;20621;-76
2022/09/12 05:53:34;;;;;;;15.33;13.23;;;;;;;;;;5054152;28;20237;-76
2022/09/12 05:56:03;;;;;;;15.20;13.60;;;;;;;;;;5054254;28;20321;-77
2022/09/12 05:58:31;;;;;;;16.20;13.10;;;;;;;;;;5053946;28;20237;-76
2022/09/12 06:01:02;;;;;;;18.80;14.30;;;;;;;;;;5054128;28;20309;-76
2022/09/12 06:03:31;;;;;;;19.30;16.33;;;;;;;;;;5054412;28;20237;-76
2022/09/12 06:06:02;;;;;;;20.77;16.97;;;;;;;;;;5054440;28;20214;-76
2022/09/12 06:08:32;;;;;;;24.77;18.20;;;;;;;;;;5054490;28;20230;-76
2022/09/12 06:11:01;;;;;;;23.00;18.87;;;;;;;;;;5054095;28;20688;-77
2022/09/12 06:13:32;;;;;;;24.57;19.63;;;;;;;;;;5054471;28;20276;-77
2022/09/12 06:16:04;;;;;;;26.80;20.40;;;;;;;;;;5055099;28;20643;-77
2022/09/12 06:18:33;;;;;;;26.53;20.27;;;;;;;;;;5054322;28;20684;-76
2022/09/12 06:21:02;;;;;;;24.90;19.83;;;;;;;;;;5053970;28;20273;-76
2022/09/12 06:23:32;;;;;;;25.10;19.73;;;;;;;;;;5054151;28;20231;-76
2022/09/12 06:26:01;;;;;;;25.00;19.73;;;;;;;;;;5054446;28;20289;-76
2022/09/12 06:28:29;;;;;;;25.90;20.47;;;;;;;;;;5053852;28;20237;-76
2022/09/12 06:31:03;;;;;;;25.67;19.90;;;;;;;;;;5053477;28;20258;-76
2022/09/12 06:33:32;;;;;;;24.93;19.90;;;;;;;;;;5053476;28;20230;-76
2022/09/12 06:36:04;;;;;;;24.00;19.70;;;;;;;;;;5053343;28;20298;-76
2022/09/12 06:38:41;;;;;;;25.83;20.70;;;;;;;;;;5053724;28;20187;-76
2022/09/12 06:41:11;;;;;;;26.10;21.57;;;;;;;;;;5053321;28;20245;-76
2022/09/12 06:43:40;;;;;;;24.13;20.17;;;;;;;;;;5053410;28;20184;-76
2022/09/12 06:46:09;;;;;;;25.00;20.00;;;;;;;;;;5053630;28;20227;-76
2022/09/12 06:48:37;;;;;;;22.43;19.50;;;;;;;;;;5053412;28;20238;-76
2022/09/12 06:51:12;;;;;;;21.63;18.10;;;;;;;;;;5053225;28;20246;-77
2022/09/12 06:53:43;;;;;;;19.47;17.30;;;;;;;;;;5053817;28;20240;-77
2022/09/12 06:56:12;;;;;;;19.27;15.47;;;;;;;;;;5053562;28;20231;-77
2022/09/12 06:58:41;;;;;;;16.77;14.97;;;;;;;;;;5053525;28;20235;-77
2022/09/12 07:01:10;;;;;;;17.90;14.40;;;;;;;;;;5053132;28;20277;-77
2022/09/12 07:03:39;;;;;;;16.43;14.50;;;;;;;;;;5053271;28;20256;-77
2022/09/12 07:06:09;;;;;;;18.73;14.97;;;;;;;;;;5053260;28;20239;-77
2022/09/12 07:08:37;;;;;;;19.00;15.18;;;;;;;;;;5053184;28;20836;-77
2022/09/12 07:11:11;;;;;;;16.50;14.80;;;;;;;;;;5052981;28;20732;-77
2022/09/12 07:13:40;;;;;;;14.98;13.38;;;;;;;;;;5052928;28;20191;-77
2022/09/12 07:16:09;;;;;;;15.13;13.45;;;;;;;;;;5053189;28;20241;-77
2022/09/12 07:18:38;;;;;;;15.75;13.43;;;;;;;;;;5053171;28;20272;-77
2022/09/12 07:21:07;;;;;;;13.77;12.38;;;;;;;;;;5052988;28;20250;-77
2022/09/12 07:23:36;;;;;;;14.15;12.80;;;;;;;;;;5054379;28;20202;-77
2022/09/12 07:26:05;;;;;;;13.57;12.18;;;;;;;;;;5056895;28;20298;-77
2022/09/12 07:28:35;;;;;;;13.23;11.88;;;;;;;;;;5056941;28;20604;-77
2022/09/12 07:31:07;;;;;;;13.75;11.82;;;;;;;;;;5056626;28;20305;-77
2022/09/12 07:33:36;;;;;;;12.98;11.60;;;;;;;;;;5056700;28;20210;-77
2022/09/12 07:36:05;;;;;;;13.70;11.48;;;;;;;;;;5056932;28;20252;-77
2022/09/12 07:38:34;;;;;;;13.45;12.05;;;;;;;;;;5056929;28;20237;-77
2022/09/12 07:41:02;;;;;;;12.85;11.43;;;;;;;;;;5056696;28;20723;-77
2022/09/12 07:43:31;;;;;;;12.45;11.18;;;;;;;;;;5056926;28;20634;-77
2022/09/12 07:46:00;;;;;;;13.63;12.00;;;;;;;;;;5056704;28;20652;-77
2022/09/12 07:48:29;;;;;;;14.40;12.27;;;;;;;;;;5056647;28;20207;-77
2022/09/12 07:51:00;;;;;;;12.30;10.95;;;;;;;;;;5056224;28;20265;-77
2022/09/12 07:53:32;;;;;;;12.77;11.20;;;;;;;;;;5057574;28;20239;-79
2022/09/12 07:56:01;;;;;;;11.60;9.82;;;;;;;;;;5058173;28;20708;-77
2022/09/12 07:58:30;;;;;;;11.38;10.27;;;;;;;;;;5056466;28;20199;-76
2022/09/12 08:01:04;;;;;;;14.57;10.73;;;;;;;;;;5056047;28;20269;-77
2022/09/12 08:03:33;;;;;;;10.55;9.50;;;;;;;;;;5056660;28;20257;-78
2022/09/12 08:06:05;;;;;;;11.15;9.48;;;;;;;;;;5056626;28;20735;-77
2022/09/12 08:08:33;;;;;;;10.07;8.93;;;;;;;;;;5056616;28;20282;-78
2022/09/12 08:11:02;;;;;;;9.88;8.73;;;;;;;;;;5056397;28;20283;-78
2022/09/12 08:13:30;;;;;;;9.18;7.60;;;;;;;;;;5056945;28;20229;-78
2022/09/12 08:15:59;;;;;;;8.80;7.05;;;;;;;;;;5056430;28;20299;-77
2022/09/12 08:18:31;;;;;;;7.53;6.70;;;;;;;;;;5057040;28;20206;-77
2022/09/12 08:21:00;;;;;;;7.28;6.57;;;;;;;;;;5056085;28;20276;-76
2022/09/12 08:23:28;;;;;;;7.60;6.90;;;;;;;;;;5056339;28;20704;-76
2022/09/12 08:25:57;;;;;;;6.82;6.13;;;;;;;;;;5056384;28;20249;-77
2022/09/12 08:28:25;;;;;;;6.57;5.97;;;;;;;;;;5056237;28;20247;-77
2022/09/12 08:30:54;;;;;;;6.88;5.97;;;;;;;;;;5056065;28;20263;-77
2022/09/12 08:33:26;;;;;;;7.00;6.30;;;;;;;;;;5056457;28;20199;-79
2022/09/12 08:36:03;;;;;;;6.25;5.65;;;;;;;;;;5055931;28;20283;-77
2022/09/12 08:38:31;;;;;;;6.35;5.20;;;;;;;;;;5056197;28;20231;-77
2022/09/12 08:41:02;;;;;;;5.40;4.90;;;;;;;;;;5055526;28;20262;-77
2022/09/12 08:43:36;;;;;;;6.07;5.05;;;;;;;;;;5056196;28;20612;-77
2022/09/12 08:46:08;;;;;;;5.90;5.13;;;;;;;;;;5055982;28;20230;-77
2022/09/12 08:48:37;;;;;;;5.30;4.72;;;;;;;;;;5055627;28;20207;-76
2022/09/12 08:51:11;;;;;;;5.00;4.50;;;;;;;;;;5056030;28;20276;-77
2022/09/12 08:53:40;;;;;;;6.05;4.57;;;;;;;;;;5056161;28;20211;-76
2022/09/12 08:56:10;;;;;;;4.35;3.85;;;;;;;;;;5054688;28;20214;-76
2022/09/12 08:58:40;;;;;;;7.03;4.55;;;;;;;;;;5054986;28;20662;-77
2022/09/12 09:01:11;;;;;;;6.30;4.70;;;;;;;;;;5053377;28;20254;-77
2022/09/12 09:04:01;;;;;;;6.55;4.30;;;;;;;;;;5055612;28;20192;-76
2022/09/12 09:06:36;;;;;;;4.80;4.10;;;;;;;;;;5055736;28;20683;-77
2022/09/12 09:09:06;;;;;;;4.53;4.13;;;;;;;;;;5055382;28;20183;-77
2022/09/12 09:11:53;;;;;;;5.07;4.05;;;;;;;;;;5055157;28;20227;-76
2022/09/12 09:17:18;;;;;;;6.13;4.53;;;;;;;;;;5055097;28;20207;-77
2022/09/12 09:19:49;;;;;;;4.95;4.38;;;;;;;;;;5055516;28;20230;-77
2022/09/12 09:22:22;;;;;;;4.72;4.30;;;;;;;;;;5055142;28;20692;-77
2022/09/12 09:24:53;;;;;;;7.32;4.28;;;;;;;;;;5054929;28;20230;-77
2022/09/12 09:27:29;;;;;;;5.07;4.55;;;;;;;;;;5055356;28;20218;-77
2022/09/12 09:30:14;;;;;;;4.70;4.15;;;;;;;;;;5055007;28;20331;-77
2022/09/12 09:32:43;;;;;;;5.47;4.88;;;;;;;;;;5055050;28;20222;-77
2022/09/12 09:35:14;;;;;;;5.63;4.90;;;;;;;;;;5054848;28;20297;-77
2022/09/12 09:37:45;;;;;;;7.85;4.82;;;;;;;;;;5055052;28;20552;-77
2022/09/12 09:40:18;;;;;;;4.80;4.40;;;;;;;;;;5054934;28;20242;-77
2022/09/12 09:42:53;;;;;;;6.25;5.05;;;;;;;;;;5054434;28;20250;-76
2022/09/12 09:45:23;;;;;;;5.07;4.50;;;;;;;;;;5054816;28;20592;-76
2022/09/12 09:47:53;;;;;;;5.15;4.40;;;;;;;;;;5054868;28;20234;-77
2022/09/12 09:50:22;;;;;;;6.45;5.07;;;;;;;;;;5054847;28;20249;-77
2022/09/12 09:52:52;;;;;;;5.80;4.30;;;;;;;;;;5054569;28;20306;-76
2022/09/12 09:55:23;;;;;;;6.22;4.65;;;;;;;;;;5054895;28;20634;-76
2022/09/12 09:57:52;;;;;;;4.07;3.78;;;;;;;;;;5054771;28;20231;-77
2022/09/12 10:00:24;;;;;;;4.88;4.43;;;;;;;;;;5054646;28;20704;-77
2022/09/12 10:03:03;;;;;;;5.43;4.40;;;;;;;;;;5054506;28;20246;-77
2022/09/12 10:05:34;;;;;;;4.30;3.90;;;;;;;;;;5054680;28;20198;-76
2022/09/12 10:08:05;;;;;;;4.47;3.75;;;;;;;;;;5054371;28;20599;-76
2022/09/12 10:10:34;;;;;;;3.80;3.50;;;;;;;;;;5054109;28;20215;-77
2022/09/12 10:13:23;;;;;;;3.80;3.50;;;;;;;;;;5053643;28;20303;-77
2022/09/12 10:15:59;;;;;;;3.75;3.42;;;;;;;;;;5054415;28;20188;-76
2022/09/12 10:18:34;;;;;;;3.97;3.58;;;;;;;;;;5054480;28;20226;-77
2022/09/12 10:21:03;;;;;;;4.88;3.45;;;;;;;;;;5054117;28;20227;-76
2022/09/12 10:23:35;;;;;;;4.10;3.70;;;;;;;;;;5054001;28;20793;-77
2022/09/12 10:26:06;;;;;;;4.82;3.20;;;;;;;;;;5054052;28;20183;-77
2022/09/12 10:28:36;;;;;;;3.35;3.15;;;;;;;;;;5054075;28;20619;-77
2022/09/12 10:31:05;;;;;;;3.45;3.10;;;;;;;;;;5053990;28;20712;-76
2022/09/12 10:33:37;;;;;;;3.75;3.38;;;;;;;;;;5053945;28;20207;-77
2022/09/12 10:36:05;;;;;;;3.35;3.05;;;;;;;;;;5053811;28;20537;-77
2022/09/12 10:38:35;;;;;;;4.15;3.03;;;;;;;;;;5053842;28;20293;-77
2022/09/12 10:41:05;;;;;;;2.97;2.70;;;;;;;;;;5053438;28;20258;-76
2022/09/12 10:43:36;;;;;;;3.17;2.67;;;;;;;;;;5053695;28;20298;-76
2022/09/12 10:46:23;;;;;;;2.90;2.70;;;;;;;;;;5053752;28;20302;-76
2022/09/12 10:48:53;;;;;;;3.90;2.47;;;;;;;;;;5053364;28;20203;-77
2022/09/12 10:51:27;;;;;;;3.65;3.35;;;;;;;;;;5053247;28;20273;-76
2022/09/12 10:53:58;;;;;;;4.07;3.10;;;;;;;;;;5053289;28;20226;-76
2022/09/12 10:56:29;;;;;;;3.20;2.90;;;;;;;;;;5053688;28;20187;-77
2022/09/12 10:59:02;;;;;;;3.10;2.80;;;;;;;;;;5052475;28;20218;-77
2022/09/12 11:01:41;;;;;;;3.35;2.85;;;;;;;;;;5053386;28;20632;-77
2022/09/12 11:04:25;;;;;;;2.65;2.45;;;;;;;;;;5053319;28;20241;-76
2022/09/12 11:06:59;;;;;;;2.78;2.58;;;;;;;;;;5053271;28;20278;-76
2022/09/12 11:09:35;;;;;;;2.92;2.20;;;;;;;;;;5053382;28;20571;-76
2022/09/12 11:12:09;;;;;;;2.53;2.33;;;;;;;;;;5053098;28;20313;-77
2022/09/12 11:14:42;;;;;;;3.08;2.78;;;;;;;;;;5053069;28;20234;-77
2022/09/12 11:17:18;;;;;;;2.88;2.60;;;;;;;;;;5053467;28;20223;-76
2022/09/12 11:19:58;;;;;;;3.03;2.40;;;;;;;;;;5053691;28;20226;-77
2022/09/12 11:22:31;;;;;;;3.80;2.70;;;;;;;;;;5053733;28;20258;-77
2022/09/12 11:25:09;;;;;;;2.90;2.40;;;;;;;;;;5053256;28;20286;-77
2022/09/12 11:27:46;;;;;;;4.63;2.65;;;;;;;;;;5045478;28;20629;-77
2022/09/12 11:30:15;;;;;;;2.38;2.17;;;;;;;;;;5033695;28;20192;-77
2022/09/12 11:32:50;;;;;;;3.25;2.20;;;;;;;;;;5033542;28;20219;-76
2022/09/12 11:35:23;;;;;;;2.70;2.50;;;;;;;;;;5033246;28;20237;-76
2022/09/12 11:37:59;;;;;;;2.92;2.65;;;;;;;;;;5033489;28;20211;-76
2022/09/12 11:40:30;;;;;;;3.47;2.60;;;;;;;;;;5032795;28;20286;-76
2022/09/12 11:43:01;;;;;;;3.65;2.63;;;;;;;;;;5033305;28;20235;-77
2022/09/12 11:45:30;;;;;;;3.08;2.80;;;;;;;;;;5039479;28;20242;-77
2022/09/12 11:48:02;;;;;;;3.00;2.80;;;;;;;;;;5053389;28;20253;-77
2022/09/12 11:50:31;;;;;;;3.30;3.00;;;;;;;;;;5052941;28;20223;-76
2022/09/12 11:53:03;;;;;;;4.47;2.80;;;;;;;;;;5053376;28;20246;-76
2022/09/12 11:55:37;;;;;;;3.85;2.58;;;;;;;;;;5053283;28;20694;-77
2022/09/12 11:58:05;;;;;;;3.83;2.80;;;;;;;;;;5053563;28;20688;-77
2022/09/12 12:00:36;;;;;;;2.67;2.47;;;;;;;;;;5052807;28;20211;-76
2022/09/12 12:03:08;;;;;;;2.60;2.30;;;;;;;;;;5053700;28;20239;-77
2022/09/12 12:05:41;;;;;;;4.35;2.55;;;;;;;;;;5053028;28;20237;-77
2022/09/12 12:08:11;;;;;;;3.10;2.80;;;;;;;;;;5053115;28;20215;-77
2022/09/12 12:10:43;;;;;;;2.90;2.70;;;;;;;;;;5055291;28;20276;-76
2022/09/12 12:13:18;;;;;;;3.67;3.08;;;;;;;;;;5056321;28;20215;-77
2022/09/12 12:15:48;;;;;;;3.80;3.00;;;;;;;;;;5056344;28;20226;-77
2022/09/12 12:18:18;;;;;;;3.00;2.80;;;;;;;;;;5056009;28;20249;-77
2022/09/12 12:20:47;;;;;;;3.22;2.92;;;;;;;;;;5056507;28;20285;-77
2022/09/12 12:23:25;;;;;;;2.92;2.60;;;;;;;;;;5055950;28;20223;-77
2022/09/12 12:25:56;;;;;;;2.92;2.20;;;;;;;;;;5056368;28;20249;-77
2022/09/12 12:28:49;;;;;;;3.47;2.25;;;;;;;;;;5056325;28;20195;-77
2022/09/12 12:31:18;;;;;;;3.78;2.65;;;;;;;;;;5048136;28;20277;-77
2022/09/12 12:34:01;;;;;;;2.33;2.13;;;;;;;;;;5035699;28;20286;-76
2022/09/12 12:36:32;;;;;;;2.90;2.20;;;;;;;;;;5038877;28;20224;-76
2022/09/12 12:39:21;;;;;;;2.42;2.20;;;;;;;;;;5052822;28;20626;-77
2022/09/12 12:41:50;;;;;;;2.83;2.10;;;;;;;;;;5035975;28;20310;-77
2022/09/12 12:44:43;;;;;;;2.75;2.25;;;;;;;;;;5054828;28;20282;-77
2022/09/12 12:47:17;;;;;;;3.35;2.00;;;;;;;;;;5055640;28;20298;-77
2022/09/12 12:49:50;;;;;;;3.20;2.17;;;;;;;;;;5055515;28;20259;-77
2022/09/12 12:52:20;;;;;;;3.95;2.17;;;;;;;;;;5055957;28;20634;-74
2022/09/12 12:54:50;;;;;;;1.80;1.70;;;;;;;;;;5053521;28;20636;-75
2022/09/12 12:57:31;;;;;;;2.38;1.80;;;;;;;;;;5053941;28;20199;-75
2022/09/12 13:00:02;;;;;;;2.92;1.65;;;;;;;;;;5051176;28;20294;-75
2022/09/12 13:02:32;;;;;;;2.67;1.90;;;;;;;;;;5053304;28;20278;-74
2022/09/12 13:05:02;;;;;;;2.97;2.05;;;;;;;;;;5061555;28;20204;-75
2022/09/12 13:07:32;;;;;;;2.30;1.90;;;;;;;;;;5043429;28;20297;-75
2022/09/12 13:10:02;;;;;;;2.22;2.03;;;;;;;;;;5036577;28;20203;-75
2022/09/12 13:12:34;;;;;;;2.78;2.10;;;;;;;;;;5051512;28;20231;-74
2022/09/12 13:15:03;;;;;;;4.32;2.50;;;;;;;;;;5047389;28;20765;-76
2022/09/12 13:17:33;;;;;;;2.63;2.15;;;;;;;;;;5037665;28;20239;-75
2022/09/12 13:20:19;;;;;;;2.30;2.10;;;;;;;;;;5032729;28;20203;-76
2022/09/12 13:22:57;;;;;;;2.30;2.08;;;;;;;;;;5031955;28;20216;-75
2022/09/12 13:25:27;;;;;;;2.22;2.05;;;;;;;;;;5037169;28;20235;-75
2022/09/12 13:28:01;;;;;;;2.70;2.10;;;;;;;;;;5052141;28;20299;-75
2022/09/12 13:30:31;;;;;;;4.32;2.20;;;;;;;;;;5052414;28;20218;-75
2022/09/12 13:33:05;;;;;;;2.72;2.30;;;;;;;;;;5053347;28;20210;-75
2022/09/12 13:35:37;;;;;;;3.70;2.30;;;;;;;;;;5051001;28;20203;-75
2022/09/12 13:38:10;;;;;;;6.53;2.40;;;;;;;;;;5046481;28;20274;-75
2022/09/12 13:40:42;;;;;;;3.67;2.05;;;;;;;;;;5047184;28;20618;-75
2022/09/12 13:43:16;;;;;;;2.95;2.05;;;;;;;;;;5051674;28;20530;-75
2022/09/12 13:45:45;;;;;;;3.10;2.08;;;;;;;;;;5051414;28;20234;-75
2022/09/12 13:48:17;;;;;;;2.85;2.40;;;;;;;;;;5052702;28;20206;-75
2022/09/12 13:50:49;;;;;;;3.03;2.30;;;;;;;;;;5052264;28;20277;-75
2022/09/12 13:53:20;;;;;;;2.40;2.20;;;;;;;;;;5052547;28;20222;-75
2022/09/12 13:55:50;;;;;;;2.35;2.17;;;;;;;;;;5051697;28;20937;-74
2022/09/12 13:58:22;;;;;;;4.35;2.40;;;;;;;;;;5046942;28;20207;-75
2022/09/12 14:01:05;;;;;;;3.50;2.50;;;;;;;;;;5051905;28;20247;-75
2022/09/12 14:06:26;;;;;;;2.45;2.25;;;;;;;;;;5038752;28;20234;-74
2022/09/12 14:08:57;;;;;;;2.38;2.17;;;;;;;;;;5051006;28;20575;-74
2022/09/12 14:11:27;;;;;;;3.10;2.25;;;;;;;;;;5042792;28;20235;-74
2022/09/12 14:13:58;;;;;;;2.50;2.30;;;;;;;;;;5039718;28;20231;-76
2022/09/12 14:16:27;;;;;;;2.60;2.40;;;;;;;;;;5052821;28;20283;-75
2022/09/12 14:18:56;;;;;;;2.75;2.20;;;;;;;;;;5053523;28;20199;-74
2022/09/12 14:21:31;;;;;;;3.35;2.35;;;;;;;;;;5051843;28;20246;-75
2022/09/12 14:23:59;;;;;;;2.58;2.38;;;;;;;;;;5053167;28;20242;-75
2022/09/12 14:26:31;;;;;;;3.95;2.10;;;;;;;;;;5053305;28;20309;-75
2022/09/12 14:29:01;;;;;;;2.42;2.22;;;;;;;;;;5053443;28;20257;-75
2022/09/12 14:31:31;;;;;;;3.53;2.50;;;;;;;;;;5052634;28;20247;-74
2022/09/12 14:34:09;;;;;;;2.60;2.40;;;;;;;;;;5042498;28;20667;-74
2022/09/12 14:36:41;;;;;;;3.15;2.38;;;;;;;;;;5053076;28;20260;-75
2022/09/12 14:39:17;;;;;;;2.70;2.45;;;;;;;;;;5052848;28;20282;-75
2022/09/12 14:41:46;;;;;;;3.20;2.58;;;;;;;;;;5044049;28;20723;-75
2022/09/12 14:44:19;;;;;;;3.50;2.70;;;;;;;;;;5038678;28;20258;-74
2022/09/12 14:46:48;;;;;;;2.85;2.65;;;;;;;;;;5052546;28;20227;-75
2022/09/12 14:49:17;;;;;;;3.95;2.90;;;;;;;;;;5052905;28;20644;-75
2022/09/12 14:51:49;;;;;;;3.50;3.05;;;;;;;;;;5052462;28;20575;-75
2022/09/12 14:54:33;;;;;;;3.45;2.72;;;;;;;;;;5052844;28;20253;-75
2022/09/12 14:57:03;;;;;;;3.60;3.28;;;;;;;;;;5052107;28;20298;-75
2022/09/12 14:59:39;;;;;;;3.13;2.83;;;;;;;;;;5052585;28;20633;-75